Shimanami Star — C6VN9 — position and weather

sailwx.info

Track history (hours):
 
Tides and Currents Weather Stations Pressure Air Temp Water Temp Dewpoint Dewpoint Depression Visibility Wind Speed Wind Dir Waves Ship Positions

Shimanami Star

Last reported at 2016-Sep-02 01:21 UTC. Time now 2016-Sep-27 08:45 UTC.
Position N 01°16' E 104°13'.
Warning: this ship's position is 25 days out of date.

Length 170 m; draft 5.4 m.

Type: Ship. MMSI: 309116000.

Date/timePositionNaut miles runAvg speedWind from/ knotsBaromVisibWave heightAir tempDewpointWater temp
2016-Sep-02 01:21N 01°16' E 104°13'1113.0
2016-Sep-02 00:32N 01°14' E 104°03'9 9.6
2016-Sep-01 23:33N 01°15' E 103°53'0 0.3
2016-Sep-01 22:30N 01°15' E 103°53'0 0.1
2016-Sep-01 21:30N 01°15' E 103°53'0 0.1
2016-Sep-01 20:24N 01°15' E 103°53'0 0.0
2016-Sep-01 19:33N 01°15' E 103°53'0 0.0
2016-Sep-01 18:30N 01°15' E 103°53'0 0.0
2016-Sep-01 17:24N 01°15' E 103°53'0 0.0
2016-Sep-01 16:30N 01°15' E 103°53'0 0.1
2016-Sep-01 15:24N 01°15' E 103°53'0 0.6
2016-Sep-01 14:33N 01°15' E 103°53'4 3.7
2016-Sep-01 13:29N 01°13' E 103°50'0 0.2
2016-Sep-01 12:29N 01°13' E 103°50'0 0.1
2016-Sep-01 11:29N 01°13' E 103°49'0 0.1
2016-Sep-01 10:29N 01°13' E 103°49'0 0.1
2016-Sep-01 09:20N 01°13' E 103°50'0 0.1
2016-Sep-01 08:29N 01°13' E 103°50'5 5.5
2016-Sep-01 07:33N 01°14' E 103°55'  
2016-Aug-26 20:09N 01°16' E 104°13'712.0
2016-Aug-26 19:33N 01°15' E 104°06'1212.1
2016-Aug-26 18:33N 01°13' E 103°54'3 2.5
2016-Aug-26 17:25N 01°15' E 103°52'0 0.1
2016-Aug-26 16:28N 01°15' E 103°53'0 0.0
2016-Aug-26 15:10N 01°15' E 103°53'0 0.0
2016-Aug-26 14:10N 01°15' E 103°53'0 0.0
2016-Aug-26 13:22N 01°15' E 103°53'0 0.0
2016-Aug-26 12:31N 01°15' E 103°53'0 0.0
2016-Aug-26 11:28N 01°15' E 103°53'0 0.1
2016-Aug-26 10:28N 01°15' E 103°53'0 0.0
2016-Aug-26 09:28N 01°15' E 103°53'0 0.0
2016-Aug-26 08:28N 01°15' E 103°53'0 0.0
2016-Aug-26 07:31N 01°15' E 103°53'2 2.0
2016-Aug-26 06:33N 01°14' E 103°54'  
Track history (hours):
 
Tides and Currents Weather Stations Pressure Air Temp Water Temp Dewpoint Dewpoint Depression Visibility Wind Speed Wind Dir Waves Ship Positions

Shimanami Star

Last reported at 2016-Sep-02 01:21 UTC. Time now 2016-Sep-27 08:45 UTC.
Position N 01°16' E 104°13'.
Warning: this ship's position is 25 days out of date.

Length 170 m; draft 5.4 m.

Type: Ship. MMSI: 309116000.

Date/timePositionNaut miles runAvg speedWind from/ knotsBaromVisibWave heightAir tempDewpointWater temp
2016-Sep-02 01:21N 01°16' E 104°13'1113.0
2016-Sep-02 00:32N 01°14' E 104°03'9 9.6
2016-Sep-01 23:33N 01°15' E 103°53'0 0.3
2016-Sep-01 22:30N 01°15' E 103°53'0 0.1
2016-Sep-01 21:30N 01°15' E 103°53'0 0.1
2016-Sep-01 20:24N 01°15' E 103°53'0 0.0
2016-Sep-01 19:33N 01°15' E 103°53'0 0.0
2016-Sep-01 18:30N 01°15' E 103°53'0 0.0
2016-Sep-01 17:24N 01°15' E 103°53'0 0.0
2016-Sep-01 16:30N 01°15' E 103°53'0 0.1
2016-Sep-01 15:24N 01°15' E 103°53'0 0.6
2016-Sep-01 14:33N 01°15' E 103°53'4 3.7
2016-Sep-01 13:29N 01°13' E 103°50'0 0.2
2016-Sep-01 12:29N 01°13' E 103°50'0 0.1
2016-Sep-01 11:29N 01°13' E 103°49'0 0.1
2016-Sep-01 10:29N 01°13' E 103°49'0 0.1
2016-Sep-01 09:20N 01°13' E 103°50'0 0.1
2016-Sep-01 08:29N 01°13' E 103°50'5 5.5
2016-Sep-01 07:33N 01°14' E 103°55'  
2016-Aug-26 20:09N 01°16' E 104°13'712.0
2016-Aug-26 19:33N 01°15' E 104°06'1212.1
2016-Aug-26 18:33N 01°13' E 103°54'3 2.5
2016-Aug-26 17:25N 01°15' E 103°52'0 0.1
2016-Aug-26 16:28N 01°15' E 103°53'0 0.0
2016-Aug-26 15:10N 01°15' E 103°53'0 0.0
2016-Aug-26 14:10N 01°15' E 103°53'0 0.0
2016-Aug-26 13:22N 01°15' E 103°53'0 0.0
2016-Aug-26 12:31N 01°15' E 103°53'0 0.0
2016-Aug-26 11:28N 01°15' E 103°53'0 0.1
2016-Aug-26 10:28N 01°15' E 103°53'0 0.0
2016-Aug-26 09:28N 01°15' E 103°53'0 0.0
2016-Aug-26 08:28N 01°15' E 103°53'0 0.0
2016-Aug-26 07:31N 01°15' E 103°53'2 2.0
2016-Aug-26 06:33N 01°14' E 103°54'  

Dump ship's entire track history